MDT,Max TemperatureF,Mean TemperatureF,Min TemperatureF,Max Dew PointF,MeanDew PointF,Min DewpointF,Max Humidity, Mean Humidity, Min Humidity, Max Sea Level PressureIn, Mean Sea Level PressureIn, Min Sea Level PressureIn, Max VisibilityMiles, Mean VisibilityMiles, Min VisibilityMiles, Max Wind SpeedMPH, Mean Wind SpeedMPH, Max Gust SpeedMPH,PrecipitationIn, CloudCover, Events, WindDirDegrees
2012-9-1,105,87,68,56,42,34,44,27,9,29.86,29.77,29.66,10,10,10,32,13,41,0.00,0,,183
2012-9-2,94,78,62,51,47,38,48,34,19,29.87,29.80,29.69,10,10,10,28,10,37,T,0,Rain,295
2012-9-3,98,77,56,54,40,29,60,35,10,29.87,29.82,29.77,10,10,10,22,9,26,0.00,0,,330
2012-9-4,97,72,46,38,33,27,54,32,9,29.90,29.81,29.68,10,10,10,30,11,38,0.00,0,,307
2012-9-5,82,66,50,39,36,33,63,41,18,30.07,29.97,29.89,10,10,10,20,7,25,0.00,0,,330
2012-9-6,85,68,51,44,39,34,54,37,20,30.04,29.88,29.81,10,10,10,23,12,28,0.00,1,,25
2012-9-7,76,62,48,50,40,30,83,52,21,30.21,30.15,30.04,10,10,10,23,10,31,T,3,Rain,324
2012-9-8,88,67,45,43,35,28,58,37,16,30.20,30.15,30.07,10,10,10,25,11,33,0.00,0,,318
2012-9-9,92,65,37,37,33,28,70,41,12,30.20,30.02,29.78,10,10,10,24,10,31,0.00,0,,180
2012-9-10,103,84,65,43,34,29,34,22,9,29.73,29.62,29.55,10,10,10,22,7,30,0.00,0,,238
2012-9-11,82,71,60,45,35,26,38,27,15,30.02,29.78,29.55,10,10,10,32,13,38,0.00,0,,344
2012-9-12,76,63,49,41,35,28,61,40,19,30.30,30.19,30.06,10,10,10,12,3,14,0.00,0,,235
2012-9-13,81,63,44,47,35,23,82,48,13,30.34,30.29,30.23,10,10,10,18,7,22,0.00,0,,287
2012-9-14,83,63,42,34,31,26,62,39,16,30.36,30.24,30.07,10,10,10,10,6,16,0.00,0,,233
2012-9-15,96,69,42,37,32,24,67,38,9,30.05,29.95,29.88,10,10,10,15,6,18,0.00,0,,306
2012-9-16,77,62,46,42,37,28,80,53,25,30.16,29.97,29.89,10,10,10,31,12,37,0.00,0,,39
2012-9-17,68,53,37,42,34,22,83,53,22,30.17,30.14,30.09,10,10,10,22,8,28,0.00,1,,327
2012-9-18,84,60,35,34,30,23,59,37,15,30.10,29.91,29.78,10,10,9,25,7,33,0.00,2,,288
2012-9-19,75,59,42,37,29,25,49,33,16,30.05,29.95,29.75,10,10,10,30,14,37,0.00,0,,308
2012-9-20,78,60,41,33,30,26,53,36,19,30.07,29.99,29.89,10,10,10,16,6,21,0.00,2,,305
2012-9-21,79,62,44,35,32,26,60,40,19,30.12,29.99,29.92,10,10,10,29,14,39,0.00,0,,325
2012-9-22,65,49,33,30,26,24,75,49,23,30.34,30.27,30.15,10,10,10,16,8,20,0.00,0,,90
2012-9-23,72,54,35,29,26,23,64,42,19,30.26,30.17,30.06,10,10,10,17,8,21,0.00,0,,81
2012-9-24,82,60,37,30,28,25,64,40,15,30.06,29.93,29.83,10,10,10,10,4,14,0.00,0,,283
2012-9-25,83,62,40,35,32,27,62,39,16,29.96,29.90,29.86,10,10,10,14,5,17,0.00,0,,37
2012-9-26,84,61,37,36,33,30,76,46,15,30.09,30.04,29.97,10,10,10,14,6,17,0.00,0,,122
2012-9-27,84,65,45,48,38,34,61,40,18,30.12,30.08,30.02,10,10,10,13,6,20,0.00,1,,168
2012-9-28,82,64,45,43,37,35,65,43,21,30.14,30.08,30.01,10,10,8,13,5,16,0.00,0,,131
2012-9-29,86,66,45,48,42,36,66,45,23,30.05,29.96,29.87,10,10,10,23,8,30,0.00,0,,124
2012-9-30,82,64,45,55,45,38,89,57,24,30.13,29.96,29.89,10,10,10,33,8,45,0.22,1,Rain,360